Time;durP1;ratioP1;P1;durP2;ratioP2;P2;SDS_P1;SDS_P2;PMS_P1;PMS_P2;Temp;Humidity;BMP_temperature;BMP_pressure;BME280_temperature;BME280_humidity;BME280_pressure;Samples;Min_cycle;Max_cycle;Signal;HPM_P1;HPM_P2
2023/10/22 00:02:11;;;;;;;3.00;1.17;;;;;;;14.13;80.25;99419.38;3618718;39;20047;-68
2023/10/22 00:04:40;;;;;;;1.73;0.68;;;;;;;14.23;80.42;99446.31;3617192;39;20070;-68
2023/10/22 00:07:07;;;;;;;2.25;1.15;;;;;;;14.13;80.06;99429.34;3617089;39;20046;-67
2023/10/22 00:09:32;;;;;;;3.10;0.80;;;;;;;14.12;80.24;99430.34;3613270;39;20406;-67
2023/10/22 00:11:58;;;;;;;1.65;0.90;;;;;;;14.19;80.44;99460.31;3617355;39;20043;-68
2023/10/22 00:14:24;;;;;;;2.97;0.80;;;;;;;14.19;79.91;99454.91;3617627;39;20333;-67
2023/10/22 00:16:50;;;;;;;1.13;0.60;;;;;;;14.27;79.86;99463.97;3607001;39;20054;-67
2023/10/22 00:19:15;;;;;;;1.85;0.75;;;;;;;14.30;79.57;99466.38;3617258;39;20063;-67
2023/10/22 00:21:41;;;;;;;2.58;0.85;;;;;;;14.23;79.90;99473.34;3615310;39;20053;-67
2023/10/22 00:24:07;;;;;;;1.90;0.70;;;;;;;14.28;80.05;99475.63;3623335;39;20553;-67
2023/10/22 00:26:33;;;;;;;3.40;0.75;;;;;;;14.30;79.63;99479.88;3620613;39;20050;-67
2023/10/22 00:28:58;;;;;;;2.58;0.63;;;;;;;14.31;79.56;99486.97;3615463;39;20081;-67
2023/10/22 00:31:24;;;;;;;2.00;0.70;;;;;;;14.33;79.98;99492.22;3623999;39;20062;-67
2023/10/22 00:33:49;;;;;;;1.98;0.80;;;;;;;14.35;79.14;99491.06;3619375;39;20057;-67
2023/10/22 00:36:15;;;;;;;1.52;0.63;;;;;;;14.36;78.89;99491.91;3613066;39;20281;-67
2023/10/22 00:38:41;;;;;;;3.58;0.77;;;;;;;14.41;78.71;99492.31;3618572;39;20054;-67
2023/10/22 00:41:06;;;;;;;2.83;0.80;;;;;;;14.24;78.42;99475.06;3616192;39;20093;-67
2023/10/22 00:43:32;;;;;;;2.78;0.65;;;;;;;14.41;78.28;99495.03;3623593;39;20043;-67
2023/10/22 00:45:58;;;;;;;3.20;0.80;;;;;;;14.48;79.01;99506.06;3622851;39;20122;-67
2023/10/22 00:48:26;;;;;;;3.55;1.13;;;;;;;14.43;78.59;99506.53;3613981;39;20058;-67
2023/10/22 00:50:52;;;;;;;3.42;0.82;;;;;;;14.51;77.97;99511.22;3608431;39;20062;-67
2023/10/22 00:53:20;;;;;;;1.23;0.63;;;;;;;14.51;78.39;99525.59;3615233;39;20394;-67
2023/10/22 00:55:48;;;;;;;1.95;0.98;;;;;;;14.52;77.87;99531.84;3614997;39;20051;-66
2023/10/22 00:58:20;;;;;;;3.55;0.90;;;;;;;14.50;78.47;99521.16;3614972;39;20078;-67
2023/10/22 01:00:46;;;;;;;2.20;0.77;;;;;;;14.52;78.34;99529.13;3605375;39;20361;-66
2023/10/22 01:03:12;;;;;;;2.40;1.02;;;;;;;14.56;78.07;99522.44;3615993;39;20094;-67
2023/10/22 01:05:38;;;;;;;4.07;0.90;;;;;;;14.58;77.66;99525.81;3615305;39;20062;-67
2023/10/22 01:08:08;;;;;;;3.60;1.73;;;;;;;14.62;76.97;99530.78;3620152;39;20064;-67
2023/10/22 01:10:33;;;;;;;2.20;1.08;;;;;;;14.62;77.10;99522.69;3615331;39;20042;-66
2023/10/22 01:13:00;;;;;;;4.45;1.20;;;;;;;14.60;77.68;99530.06;3616856;39;20051;-67
2023/10/22 01:15:26;;;;;;;2.63;0.73;;;;;;;14.62;77.12;99541.59;3608498;39;20043;-67
2023/10/22 01:17:53;;;;;;;2.70;0.80;;;;;;;14.58;76.88;99529.38;3614829;39;20281;-67
2023/10/22 01:20:19;;;;;;;1.75;0.90;;;;;;;14.63;76.91;99540.59;3615133;39;20387;-67
2023/10/22 01:22:45;;;;;;;2.55;0.47;;;;;;;14.66;76.96;99542.16;3618669;39;20086;-67
2023/10/22 01:25:10;;;;;;;3.83;1.00;;;;;;;14.66;76.34;99552.13;3620702;39;20122;-67
2023/10/22 01:27:37;;;;;;;3.15;1.00;;;;;;;14.63;76.73;99554.13;3620213;39;20039;-67
2023/10/22 01:30:03;;;;;;;4.25;1.10;;;;;;;14.51;77.01;99535.56;3614413;39;20070;-67
2023/10/22 01:32:33;;;;;;;4.38;0.90;;;;;;;14.65;76.98;99553.94;3617022;39;20046;-67
2023/10/22 01:35:02;;;;;;;3.22;0.90;;;;;;;14.60;77.17;99556.28;3618165;39;20079;-67
2023/10/22 01:37:27;;;;;;;1.60;0.73;;;;;;;14.60;77.13;99562.53;3617368;39;20062;-68
2023/10/22 01:39:54;;;;;;;2.97;1.15;;;;;;;14.62;77.88;99584.03;3621284;39;20046;-68
2023/10/22 01:42:20;;;;;;;2.90;0.93;;;;;;;14.56;77.66;99580.06;3616283;39;20046;-68
2023/10/22 01:44:45;;;;;;;2.75;1.08;;;;;;;14.56;78.80;99604.41;3609693;39;20119;-68
2023/10/22 01:47:11;;;;;;;2.22;0.90;;;;;;;14.51;79.60;99598.59;3621239;39;20058;-66
2023/10/22 01:49:38;;;;;;;4.13;0.95;;;;;;;14.40;80.88;99604.19;3619616;39;20139;-66
2023/10/22 01:52:04;;;;;;;2.97;0.95;;;;;;;14.29;82.10;99607.91;3620382;39;20065;-66
2023/10/22 01:54:29;;;;;;;2.53;0.98;;;;;;;14.20;83.02;99607.94;3621800;39;20039;-66
2023/10/22 01:56:55;;;;;;;2.17;1.17;;;;;;;14.11;84.25;99615.97;3618055;39;20097;-66
2023/10/22 01:59:20;;;;;;;5.90;0.88;;;;;;;14.01;86.07;99609.72;3612303;39;20047;-67
2023/10/22 02:01:46;;;;;;;2.40;1.33;;;;;;;13.90;86.81;99618.00;3606971;39;20286;-67
2023/10/22 02:04:12;;;;;;;5.03;1.10;;;;;;;13.64;87.71;99583.53;3617440;39;20051;-67
2023/10/22 02:06:37;;;;;;;4.53;1.20;;;;;;;13.78;88.66;99624.56;3617018;39;20424;-66
2023/10/22 02:09:03;;;;;;;2.55;1.30;;;;;;;13.71;89.15;99624.28;3620163;39;20069;-68
2023/10/22 02:11:30;;;;;;;4.90;1.83;;;;;;;13.63;89.73;99626.84;3614479;39;20055;-66
2023/10/22 02:13:55;;;;;;;3.22;1.30;;;;;;;13.60;90.51;99638.78;3616999;39;20075;-66
2023/10/22 02:16:21;;;;;;;2.60;1.17;;;;;;;13.51;91.27;99622.59;3615026;39;20062;-66
2023/10/22 02:18:46;;;;;;;4.38;1.38;;;;;;;13.47;92.15;99638.22;3616690;39;20050;-66
2023/10/22 02:21:12;;;;;;;3.13;1.35;;;;;;;13.46;92.32;99652.75;3619727;39;20058;-66
2023/10/22 02:23:40;;;;;;;2.55;1.20;;;;;;;13.43;92.54;99644.91;3615303;39;20054;-66
2023/10/22 02:26:07;;;;;;;4.60;1.48;;;;;;;13.36;93.38;99641.94;3611964;39;20160;-65
2023/10/22 02:28:33;;;;;;;3.17;1.20;;;;;;;13.40;93.85;99656.00;3615379;39;20047;-66
2023/10/22 02:30:59;;;;;;;4.80;1.60;;;;;;;13.34;94.03;99661.97;3610360;39;20066;-65
2023/10/22 02:33:24;;;;;;;4.63;1.42;;;;;;;13.26;94.30;99657.28;3615250;39;20381;-66
2023/10/22 02:35:51;;;;;;;3.85;1.00;;;;;;;13.33;94.52;99668.38;3614297;39;20381;-65
2023/10/22 02:38:18;;;;;;;3.58;1.20;;;;;;;13.32;94.84;99672.03;3609322;39;20657;-65
2023/10/22 02:40:49;;;;;;;5.43;1.75;;;;;;;13.31;94.73;99683.84;3616994;39;20062;-65
2023/10/22 02:43:16;;;;;;;2.10;1.42;;;;;;;13.26;95.06;99681.56;3614681;39;20598;-66
2023/10/22 02:45:55;;;;;;;3.08;1.25;;;;;;;13.27;94.57;99685.13;3615743;39;20050;-67
2023/10/22 02:48:23;;;;;;;2.28;1.23;;;;;;;13.10;94.73;99668.59;3604702;39;20047;-66
2023/10/22 02:50:49;;;;;;;4.30;1.92;;;;;;;13.06;94.68;99675.25;3615141;39;20046;-66
2023/10/22 02:53:16;;;;;;;5.03;1.95;;;;;;;13.14;94.72;99685.34;3617411;39;20314;-66
2023/10/22 02:55:42;;;;;;;4.07;1.33;;;;;;;13.25;94.36;99709.53;3605597;39;20426;-65
2023/10/22 02:58:09;;;;;;;4.10;1.30;;;;;;;13.24;94.79;99716.78;3606504;39;20047;-66
2023/10/22 03:00:35;;;;;;;3.38;1.02;;;;;;;13.26;93.89;99719.34;3615727;39;20058;-66
2023/10/22 03:03:02;;;;;;;3.08;1.23;;;;;;;13.10;94.34;99692.88;3616897;39;20058;-66
2023/10/22 03:05:33;;;;;;;2.92;1.30;;;;;;;13.28;94.24;99721.91;3609526;39;20054;-66
2023/10/22 03:08:00;;;;;;;2.00;1.20;;;;;;;13.29;93.99;99737.09;3609970;39;20066;-66
2023/10/22 03:10:26;;;;;;;5.15;1.83;;;;;;;13.29;93.61;99734.38;3619843;39;20058;-66
2023/10/22 03:12:52;;;;;;;5.97;1.58;;;;;;;13.15;93.03;99720.28;3615013;39;20050;-66
2023/10/22 03:15:18;;;;;;;4.00;1.85;;;;;;;13.11;92.73;99712.63;3616932;39;20706;-66
2023/10/22 03:17:44;;;;;;;2.90;1.85;;;;;;;13.29;91.90;99743.38;3617829;39;20050;-66
2023/10/22 03:20:10;;;;;;;5.40;2.40;;;;;;;13.29;91.90;99758.69;3621194;39;20058;-66
2023/10/22 03:22:36;;;;;;;5.70;1.90;;;;;;;13.34;91.26;99759.97;3618159;39;20050;-66
2023/10/22 03:25:07;;;;;;;3.65;1.92;;;;;;;13.24;90.93;99757.25;3619084;39;20073;-66
2023/10/22 03:27:34;;;;;;;5.78;2.35;;;;;;;13.29;90.95;99774.88;3618278;39;20091;-67
2023/10/22 03:29:59;;;;;;;4.43;1.50;;;;;;;13.26;90.62;99781.44;3608240;39;20046;-66
2023/10/22 03:32:25;;;;;;;3.13;1.98;;;;;;;13.27;90.70;99782.28;3614726;39;20292;-66
2023/10/22 03:34:50;;;;;;;3.92;1.88;;;;;;;12.96;90.35;99758.00;3615273;39;20385;-66
2023/10/22 03:37:17;;;;;;;3.00;2.17;;;;;;;13.20;89.92;99804.38;3614120;39;20059;-66
2023/10/22 03:39:43;;;;;;;3.42;2.30;;;;;;;13.18;89.90;99808.19;3614266;39;20046;-66
2023/10/22 03:42:08;;;;;;;5.15;2.40;;;;;;;13.19;89.90;99809.91;3614197;39;20428;-67
2023/10/22 03:44:34;;;;;;;5.38;2.58;;;;;;;13.15;89.96;99811.16;3605615;39;20047;-66
2023/10/22 03:46:59;;;;;;;4.72;2.80;;;;;;;13.11;89.63;99821.38;3613638;39;20413;-66
2023/10/22 03:49:25;;;;;;;5.70;2.75;;;;;;;13.08;88.89;99821.66;3616427;39;20053;-66
2023/10/22 03:51:50;;;;;;;5.32;3.28;;;;;;;12.99;88.98;99822.47;3613767;39;20047;-67
2023/10/22 03:54:16;;;;;;;5.15;3.08;;;;;;;13.04;88.96;99838.25;3615869;39;20390;-66
2023/10/22 03:56:42;;;;;;;4.00;3.00;;;;;;;13.02;89.02;99843.78;3620427;39;20057;-66
2023/10/22 03:59:07;;;;;;;4.75;3.13;;;;;;;12.85;89.43;99817.44;3618746;39;20051;-66
2023/10/22 04:01:33;;;;;;;4.13;2.95;;;;;;;13.00;88.72;99851.13;3616293;39;20436;-66
2023/10/22 04:03:58;;;;;;;3.05;2.42;;;;;;;12.78;88.50;99828.75;3617183;39;20069;-66
2023/10/22 04:06:24;;;;;;;4.28;3.00;;;;;;;12.99;88.04;99865.63;3615844;39;20051;-66
2023/10/22 04:08:49;;;;;;;5.13;3.13;;;;;;;12.99;87.48;99865.63;3618729;39;20444;-66
2023/10/22 04:11:19;;;;;;;6.13;2.83;;;;;;;12.98;87.92;99872.88;3617076;39;20051;-66
2023/10/22 04:13:45;;;;;;;5.15;3.38;;;;;;;12.98;87.90;99866.63;3617023;39;20459;-66
2023/10/22 04:16:15;;;;;;;4.53;2.85;;;;;;;12.93;87.70;99871.56;3617605;39;20047;-66
2023/10/22 04:18:41;;;;;;;6.65;2.78;;;;;;;12.95;87.56;99875.00;3617714;39;20054;-66
2023/10/22 04:21:16;;;;;;;4.38;3.10;;;;;;;12.93;87.60;99898.53;3615632;39;20411;-66
2023/10/22 04:23:42;;;;;;;4.10;3.03;;;;;;;12.76;87.84;99878.44;3619738;39;20114;-66
2023/10/22 04:26:15;;;;;;;4.68;3.00;;;;;;;12.88;87.78;99904.34;3619397;39;20055;-66
2023/10/22 04:28:44;;;;;;;5.82;2.90;;;;;;;12.74;88.17;99883.94;3616883;39;20307;-66
2023/10/22 04:31:10;;;;;;;4.03;2.60;;;;;;;12.84;88.30;99904.72;3617058;39;20127;-66
2023/10/22 04:33:36;;;;;;;5.68;2.90;;;;;;;12.85;88.19;99912.69;3618480;39;20043;-68
2023/10/22 04:36:03;;;;;;;6.70;2.70;;;;;;;12.82;88.21;99920.19;3618699;39;20066;-66
2023/10/22 04:38:30;;;;;;;5.03;3.00;;;;;;;12.62;88.35;99895.75;3618098;39;20046;-66
2023/10/22 04:40:56;;;;;;;8.23;3.13;;;;;;;12.74;88.67;99919.00;3606604;39;20401;-66
2023/10/22 04:43:22;;;;;;;5.15;2.80;;;;;;;12.73;88.27;99919.97;3618384;39;20053;-67
2023/10/22 04:45:49;;;;;;;5.18;3.00;;;;;;;12.70;88.32;99935.56;3620911;39;20054;-66
2023/10/22 04:48:16;;;;;;;4.45;2.78;;;;;;;12.66;88.37;99944.91;3609011;39;20043;-67
2023/10/22 04:50:42;;;;;;;5.85;3.03;;;;;;;12.62;88.87;99947.00;3609965;39;20058;-66
2023/10/22 04:53:09;;;;;;;3.85;2.50;;;;;;;12.58;88.78;99948.25;3616678;39;20051;-66
2023/10/22 04:55:34;;;;;;;10.15;3.10;;;;;;;12.57;88.98;99946.53;3619161;39;20298;-67
2023/10/22 04:58:02;;;;;;;6.97;2.95;;;;;;;12.54;88.94;99954.88;3608304;39;20536;-67
2023/10/22 05:00:27;;;;;;;8.40;3.88;;;;;;;12.49;88.78;99949.88;3615238;39;20059;-67
2023/10/22 05:02:53;;;;;;;4.45;3.10;;;;;;;12.47;88.83;99953.69;3615683;39;20047;-66
2023/10/22 05:05:20;;;;;;;3.97;3.22;;;;;;;12.44;89.28;99962.03;3616706;39;20058;-67
2023/10/22 05:07:49;;;;;;;5.07;2.70;;;;;;;12.23;89.09;99935.88;3617824;39;20442;-67
2023/10/22 05:10:16;;;;;;;4.10;2.92;;;;;;;12.34;88.84;99961.06;3617386;39;20087;-67
2023/10/22 05:12:41;;;;;;;5.03;2.75;;;;;;;12.27;89.03;99967.00;3616204;39;20457;-66
2023/10/22 05:15:08;;;;;;;6.55;2.90;;;;;;;12.31;89.09;99978.38;3617243;39;20053;-67
2023/10/22 05:17:34;;;;;;;4.78;3.03;;;;;;;12.20;89.29;99971.16;3616518;39;20046;-67
2023/10/22 05:19:59;;;;;;;5.60;3.10;;;;;;;12.26;89.56;99981.44;3615870;39;20338;-66
2023/10/22 05:22:25;;;;;;;5.80;2.97;;;;;;;12.24;89.29;99983.41;3617179;39;20057;-67
2023/10/22 05:24:51;;;;;;;4.43;2.90;;;;;;;12.22;89.69;99985.38;3615664;39;20054;-67
2023/10/22 05:27:17;;;;;;;8.70;3.00;;;;;;;12.20;89.38;99997.25;3615736;39;20263;-67
2023/10/22 05:29:46;;;;;;;5.32;2.95;;;;;;;12.18;90.20;99999.22;3615612;39;20051;-67
2023/10/22 05:32:14;;;;;;;7.50;3.13;;;;;;;12.14;90.14;100004.00;3617242;39;20051;-68
2023/10/22 05:34:42;;;;;;;6.78;3.45;;;;;;;12.11;89.45;100003.38;3615806;39;20057;-67
2023/10/22 05:37:08;;;;;;;5.28;3.70;;;;;;;11.92;89.92;99982.47;3619270;39;20047;-67
2023/10/22 05:39:36;;;;;;;5.95;3.35;;;;;;;12.02;89.85;100015.75;3615085;39;20050;-67
2023/10/22 05:42:04;;;;;;;5.28;3.30;;;;;;;11.90;90.13;99995.22;3615659;39;20378;-67
2023/10/22 05:44:30;;;;;;;7.97;3.85;;;;;;;11.94;90.08;100019.09;3619596;39;20050;-67
2023/10/22 05:46:56;;;;;;;5.00;3.20;;;;;;;11.91;90.42;100027.41;3616993;39;20050;-67
2023/10/22 05:49:21;;;;;;;6.20;3.15;;;;;;;11.90;90.83;100027.56;3616473;39;20051;-67
2023/10/22 05:51:47;;;;;;;4.60;3.13;;;;;;;11.81;90.49;100021.03;3608078;39;20046;-67
2023/10/22 05:54:13;;;;;;;5.63;3.08;;;;;;;11.83;90.63;100028.00;3616538;39;20055;-66
2023/10/22 05:56:38;;;;;;;3.80;2.90;;;;;;;11.72;90.87;100024.44;3608842;39;20521;-68
2023/10/22 05:59:08;;;;;;;5.32;2.50;;;;;;;11.76;90.87;100042.91;3615796;39;20059;-67
2023/10/22 06:01:38;;;;;;;6.03;2.97;;;;;;;11.74;90.84;100044.88;3607615;39;20046;-68
2023/10/22 06:04:06;;;;;;;6.70;2.97;;;;;;;11.70;91.17;100051.47;3618091;39;20058;-67
2023/10/22 06:06:31;;;;;;;3.72;2.35;;;;;;;11.69;91.11;100051.59;3614847;39;20394;-68
2023/10/22 06:08:57;;;;;;;3.25;2.80;;;;;;;11.67;91.30;100062.50;3614594;39;20054;-68
2023/10/22 06:11:23;;;;;;;3.55;2.67;;;;;;;11.48;91.23;100038.88;3614747;39;20050;-68
2023/10/22 06:13:48;;;;;;;4.05;2.90;;;;;;;11.65;91.29;100077.06;3617269;39;20069;-69
2023/10/22 06:16:14;;;;;;;5.75;3.15;;;;;;;11.63;91.80;100072.63;3614261;39;20054;-69
2023/10/22 06:18:40;;;;;;;3.42;2.00;;;;;;;11.64;92.18;100070.81;3614556;39;20050;-69
2023/10/22 06:21:12;;;;;;;3.17;2.13;;;;;;;11.73;92.16;100083.53;3614833;39;20302;-69
2023/10/22 06:23:37;;;;;;;4.93;1.88;;;;;;;11.76;91.96;100083.31;3615889;39;20062;-66
2023/10/22 06:26:04;;;;;;;8.95;1.92;;;;;;;11.73;91.81;100085.38;3614065;39;20055;-67
2023/10/22 06:28:31;;;;;;;4.50;1.92;;;;;;;11.84;92.30;100094.38;3616062;39;20051;-66
2023/10/22 06:31:13;;;;;;;2.33;1.40;;;;;;;11.74;91.64;100081.72;3607550;39;20338;-67
2023/10/22 06:33:43;;;;;;;3.67;1.60;;;;;;;11.93;91.75;100111.66;3613930;39;20103;-66
2023/10/22 06:36:17;;;;;;;2.67;1.48;;;;;;;11.98;91.58;100117.50;3615818;39;20050;-67
2023/10/22 06:38:45;;;;;;;6.38;1.95;;;;;;;12.03;91.10;100120.72;3615956;39;20053;-66
2023/10/22 06:41:25;;;;;;;6.15;1.83;;;;;;;12.08;91.04;100131.09;3617225;39;20094;-67
2023/10/22 06:43:51;;;;;;;3.22;1.27;;;;;;;12.13;90.85;100133.44;3615672;39;20051;-66
2023/10/22 06:46:18;;;;;;;3.65;1.10;;;;;;;12.17;90.96;100137.59;3606258;39;20046;-67
2023/10/22 06:48:43;;;;;;;4.07;1.55;;;;;;;12.19;90.54;100131.13;3616443;39;20046;-66
2023/10/22 06:51:12;;;;;;;6.47;1.25;;;;;;;12.18;90.87;100121.34;3617330;39;20363;-67
2023/10/22 06:53:39;;;;;;;5.32;1.50;;;;;;;12.28;90.38;100146.56;3614908;39;20047;-66
2023/10/22 06:56:05;;;;;;;2.42;1.33;;;;;;;12.31;90.19;100151.72;3616578;39;20066;-66
2023/10/22 06:58:32;;;;;;;2.40;1.10;;;;;;;12.26;90.58;100145.81;3614515;39;20317;-66
2023/10/22 07:01:09;;;;;;;3.78;1.02;;;;;;;12.37;90.34;100160.25;3617311;39;20408;-66
2023/10/22 07:03:41;;;;;;;2.45;1.38;;;;;;;12.40;90.35;100160.00;3618921;39;20393;-67
2023/10/22 07:06:07;;;;;;;4.18;1.38;;;;;;;12.36;90.27;100153.16;3617244;39;20059;-67
2023/10/22 07:08:35;;;;;;;3.55;1.45;;;;;;;12.40;90.35;100152.81;3607976;39;20078;-66
2023/10/22 07:11:01;;;;;;;3.55;1.20;;;;;;;12.49;90.63;100164.66;3605103;39;20054;-66
2023/10/22 07:13:27;;;;;;;2.47;1.30;;;;;;;12.53;90.00;100172.41;3614871;39;20091;-66
2023/10/22 07:15:53;;;;;;;3.83;1.40;;;;;;;12.53;90.39;100177.81;3613813;39;20760;-67
2023/10/22 07:18:21;;;;;;;3.80;1.65;;;;;;;12.52;90.16;100178.75;3615982;39;20046;-66
2023/10/22 07:20:47;;;;;;;3.78;1.70;;;;;;;12.55;90.13;100191.13;3615255;39;20042;-66
2023/10/22 07:23:13;;;;;;;6.25;3.28;;;;;;;12.54;90.12;100200.22;3617704;39;20054;-67
2023/10/22 07:25:39;;;;;;;3.17;1.70;;;;;;;12.54;89.79;100206.47;3614764;39;20271;-65
2023/10/22 07:28:05;;;;;;;3.10;1.25;;;;;;;12.49;89.93;100214.06;3613936;39;20072;-65
2023/10/22 07:30:32;;;;;;;4.03;1.77;;;;;;;12.50;90.54;100225.72;3613955;39;20063;-66
2023/10/22 07:32:59;;;;;;;5.25;1.85;;;;;;;12.44;90.41;100212.72;3606210;39;20732;-67
2023/10/22 07:35:24;;;;;;;4.22;1.60;;;;;;;12.47;90.28;100220.56;3604412;39;20317;-67
2023/10/22 07:37:50;;;;;;;4.80;1.30;;;;;;;12.47;90.54;100231.34;3603704;39;20052;-66
2023/10/22 07:40:20;;;;;;;3.95;1.58;;;;;;;12.35;90.79;100210.75;3609746;39;20047;-66
2023/10/22 07:42:48;;;;;;;5.25;1.95;;;;;;;12.45;90.67;100238.69;3614374;39;20043;-66
2023/10/22 07:45:14;;;;;;;4.13;1.50;;;;;;;12.48;90.88;100244.69;3617291;39;20049;-66
2023/10/22 07:47:43;;;;;;;3.38;1.40;;;;;;;12.50;91.54;100241.88;3616052;39;20115;-66
2023/10/22 07:50:09;;;;;;;4.65;1.50;;;;;;;12.57;92.09;100243.13;3613844;39;20055;-67
2023/10/22 07:52:36;;;;;;;4.95;1.92;;;;;;;12.62;91.33;100256.22;3613947;39;20043;-67
2023/10/22 07:55:01;;;;;;;3.90;1.63;;;;;;;12.65;91.97;100254.13;3614427;39;20070;-67
2023/10/22 07:57:28;;;;;;;1.63;1.23;;;;;;;12.73;91.29;100265.19;3615964;39;20093;-66
2023/10/22 07:59:56;;;;;;;4.00;1.75;;;;;;;12.84;91.50;100256.22;3616359;39;20050;-66
2023/10/22 08:02:23;;;;;;;4.68;1.70;;;;;;;12.95;90.56;100258.06;3618230;39;20057;-67
2023/10/22 08:04:49;;;;;;;3.45;1.90;;;;;;;13.03;89.99;100263.69;3613935;39;20390;-67
2023/10/22 08:07:18;;;;;;;4.72;1.75;;;;;;;13.12;90.52;100262.94;3615028;39;20046;-67
2023/10/22 08:09:47;;;;;;;4.30;1.63;;;;;;;13.17;89.83;100252.63;3614856;39;20054;-66
2023/10/22 08:12:14;;;;;;;8.38;2.70;;;;;;;13.26;88.92;100267.25;3619108;39;20055;-67
2023/10/22 08:14:40;;;;;;;23.67;6.22;;;;;;;13.32;88.88;100264.06;3617316;39;20265;-67
2023/10/22 08:17:06;;;;;;;33.70;6.68;;;;;;;13.41;88.78;100267.81;3612952;39;20115;-65
2023/10/22 08:19:32;;;;;;;8.77;2.72;;;;;;;13.51;88.39;100266.09;3613451;39;20047;-67
2023/10/22 08:21:57;;;;;;;3.83;1.77;;;;;;;13.56;87.12;100269.25;3613532;39;20304;-65
2023/10/22 08:24:23;;;;;;;4.13;1.65;;;;;;;13.58;87.47;100267.28;3613785;39;20061;-65
2023/10/22 08:26:48;;;;;;;1.95;1.30;;;;;;;13.68;87.35;100276.31;3613673;39;20057;-66
2023/10/22 08:29:14;;;;;;;3.05;1.80;;;;;;;13.73;87.00;100280.47;3615451;39;20465;-66
2023/10/22 08:31:39;;;;;;;4.72;1.63;;;;;;;13.77;86.33;100290.06;3613428;39;20059;-67
2023/10/22 08:34:05;;;;;;;3.67;1.65;;;;;;;13.92;86.34;100291.44;3613765;39;20078;-66
2023/10/22 08:36:31;;;;;;;3.33;1.83;;;;;;;14.15;86.09;100303.88;3606696;39;20055;-67
2023/10/22 08:38:57;;;;;;;4.78;1.90;;;;;;;14.43;85.06;100295.22;3614512;39;20740;-67
2023/10/22 08:41:31;;;;;;;2.53;1.67;;;;;;;14.39;83.93;100276.56;3618143;39;20281;-66
2023/10/22 08:43:58;;;;;;;4.32;1.98;;;;;;;14.58;82.50;100310.16;3604856;39;21438;-67
2023/10/22 08:46:24;;;;;;;3.70;1.42;;;;;;;14.70;82.10;100308.25;3617479;39;20330;-66
2023/10/22 08:48:50;;;;;;;5.85;1.80;;;;;;;14.82;81.09;100312.59;3606331;39;20046;-66
2023/10/22 08:51:22;;;;;;;4.70;1.80;;;;;;;14.81;81.07;100322.56;3622322;39;20458;-66
2023/10/22 08:53:47;;;;;;;2.65;1.65;;;;;;;14.80;80.74;100326.25;3616382;39;20054;-67
2023/10/22 08:56:15;;;;;;;2.67;2.00;;;;;;;14.76;81.23;100323.94;3620791;39;20301;-66
2023/10/22 08:58:40;;;;;;;4.43;2.08;;;;;;;14.73;81.03;100318.81;3615779;39;20038;-66
2023/10/22 09:01:06;;;;;;;4.15;1.83;;;;;;;14.71;82.01;100328.91;3615320;39;20047;-67
2023/10/22 09:03:35;;;;;;;2.58;1.80;;;;;;;14.71;82.16;100326.19;3619531;39;20043;-67
2023/10/22 09:06:01;;;;;;;4.57;2.33;;;;;;;14.69;82.79;100322.78;3615409;39;20053;-67
2023/10/22 09:08:45;;;;;;;4.82;2.20;;;;;;;14.65;81.84;100324.00;3615454;39;20051;-66
2023/10/22 09:11:16;;;;;;;4.20;2.15;;;;;;;14.74;81.59;100347.56;3620318;39;20042;-67
2023/10/22 09:13:42;;;;;;;3.35;1.80;;;;;;;14.73;82.82;100345.88;3623854;39;20046;-67
2023/10/22 09:16:08;;;;;;;4.10;2.10;;;;;;;14.66;83.03;100333.88;3619214;39;20055;-67
2023/10/22 09:18:46;;;;;;;3.58;2.10;;;;;;;14.73;83.50;100356.69;3619276;39;20054;-66
2023/10/22 09:21:11;;;;;;;4.18;2.15;;;;;;;14.66;81.87;100333.88;3617678;39;20389;-67
2023/10/22 09:23:37;;;;;;;4.88;2.30;;;;;;;14.66;81.77;100342.84;3612035;39;20084;-67
2023/10/22 09:26:03;;;;;;;3.05;2.33;;;;;;;14.71;82.68;100347.84;3622945;39;20054;-67
2023/10/22 09:28:30;;;;;;;4.35;2.72;;;;;;;14.73;83.32;100362.09;3617172;39;20127;-67
2023/10/22 09:31:01;;;;;;;4.30;2.50;;;;;;;14.80;82.84;100363.28;3615100;39;20166;-65
2023/10/22 09:33:39;;;;;;;5.07;2.35;;;;;;;14.82;82.22;100358.59;3617881;39;20057;-66
2023/10/22 09:36:14;;;;;;;3.25;2.53;;;;;;;14.78;82.26;100363.41;3615188;39;20055;-65
2023/10/22 09:38:43;;;;;;;5.60;2.38;;;;;;;14.79;82.76;100372.38;3617946;39;20047;-66
2023/10/22 09:41:27;;;;;;;4.63;2.42;;;;;;;14.82;82.73;100372.13;3616233;39;20402;-66
2023/10/22 09:43:57;;;;;;;4.53;2.40;;;;;;;14.86;82.93;100378.97;3621905;39;20059;-66
2023/10/22 09:46:30;;;;;;;25.00;6.72;;;;;;;14.86;83.29;100379.81;3620194;39;20038;-66
2023/10/22 09:48:59;;;;;;;6.22;2.75;;;;;;;14.92;83.56;100386.56;3607930;39;20059;-66
2023/10/22 09:51:31;;;;;;;5.03;2.40;;;;;;;14.92;82.61;100393.81;3616560;39;20043;-66
2023/10/22 09:54:05;;;;;;;5.80;2.67;;;;;;;14.90;83.10;100402.06;3617899;39;20073;-66
2023/10/22 09:56:42;;;;;;;3.58;2.60;;;;;;;14.85;83.37;100401.63;3618182;39;20317;-67
2023/10/22 09:59:11;;;;;;;5.53;2.22;;;;;;;14.85;83.40;100404.34;3616007;39;20322;-67
2023/10/22 10:01:39;;;;;;;5.82;2.70;;;;;;;14.85;83.93;100401.63;3621095;39;20050;-66
2023/10/22 10:04:06;;;;;;;2.58;2.28;;;;;;;14.89;84.57;100396.81;3622342;39;20055;-67
2023/10/22 10:06:36;;;;;;;3.97;2.50;;;;;;;14.92;83.96;100402.81;3622349;39;20053;-66
2023/10/22 10:09:04;;;;;;;3.53;2.45;;;;;;;14.96;84.77;100396.13;3618496;39;20116;-65
2023/10/22 10:11:33;;;;;;;2.92;2.20;;;;;;;14.97;83.61;100405.97;3614499;39;20039;-66
2023/10/22 10:14:31;;;;;;;4.88;2.58;;;;;;;14.75;83.22;100371.81;3611871;39;20067;-66
2023/10/22 10:17:01;;;;;;;3.13;2.25;;;;;;;14.94;82.66;100408.94;3610221;39;20069;-66
2023/10/22 10:19:26;;;;;;;3.00;2.33;;;;;;;14.93;82.98;100411.78;3615086;39;20369;-66
2023/10/22 10:21:53;;;;;;;2.97;2.20;;;;;;;14.86;83.67;100406.03;3615118;39;20057;-66
2023/10/22 10:24:25;;;;;;;4.38;2.67;;;;;;;14.87;82.92;100418.56;3615268;39;20035;-66
2023/10/22 10:27:12;;;;;;;2.92;2.10;;;;;;;14.87;83.71;100423.97;3614678;39;20091;-66
2023/10/22 10:29:39;;;;;;;4.00;2.60;;;;;;;14.75;84.57;100409.69;3614105;39;20051;-65
2023/10/22 10:32:13;;;;;;;4.97;2.70;;;;;;;14.86;84.33;100424.97;3614624;39;20080;-66
2023/10/22 10:34:43;;;;;;;4.68;2.50;;;;;;;14.84;84.47;100425.13;3614329;39;20057;-66
2023/10/22 10:37:19;;;;;;;3.92;2.85;;;;;;;14.90;84.58;100433.69;3615235;39;20054;-66
2023/10/22 10:39:54;;;;;;;4.90;2.63;;;;;;;14.83;84.68;100434.22;3614617;39;20051;-65
2023/10/22 10:42:29;;;;;;;5.35;2.45;;;;;;;14.89;85.78;100430.13;3614451;39;20083;-66
2023/10/22 10:44:54;;;;;;;4.35;2.63;;;;;;;14.92;84.63;100440.69;3616897;39;20397;-65
2023/10/22 10:47:20;;;;;;;3.63;2.60;;;;;;;14.96;85.12;100433.16;3618735;39;20051;-66
2023/10/22 10:50:17;;;;;;;4.63;2.53;;;;;;;14.98;83.95;100436.59;3615022;39;20289;-66
2023/10/22 10:52:42;;;;;;;6.05;2.88;;;;;;;15.00;84.67;100435.50;3616991;39;20054;-66
2023/10/22 10:55:15;;;;;;;3.78;2.50;;;;;;;15.03;84.58;100435.22;3615329;39;20295;-66
2023/10/22 10:57:50;;;;;;;3.13;2.88;;;;;;;15.07;84.15;100442.06;3615409;39;20055;-65
2023/10/22 11:00:27;;;;;;;4.60;2.80;;;;;;;15.14;84.46;100441.53;3614830;39;20428;-66
2023/10/22 11:02:56;;;;;;;5.75;2.92;;;;;;;15.20;83.72;100441.00;3614046;39;20057;-66
2023/10/22 11:05:50;;;;;;;4.07;2.90;;;;;;;15.23;83.82;100438.03;3621934;39;20046;-66
2023/10/22 11:08:22;;;;;;;4.95;2.42;;;;;;;15.31;83.14;100435.50;3611920;39;20068;-67
2023/10/22 11:10:48;;;;;;;7.15;3.00;;;;;;;15.42;81.87;100439.97;3610578;39;20049;-66
2023/10/22 11:13:14;;;;;;;3.25;2.33;;;;;;;15.47;81.84;100443.13;3615989;39;20051;-67
2023/10/22 11:15:40;;;;;;;4.25;2.40;;;;;;;15.51;81.63;100447.31;3620973;39;20054;-65
2023/10/22 11:18:11;;;;;;;4.15;2.47;;;;;;;15.56;81.18;100447.72;3606868;39;20051;-65
2023/10/22 11:20:38;;;;;;;5.80;2.50;;;;;;;15.59;80.70;100462.84;3617288;39;20115;-66
2023/10/22 11:23:17;;;;;;;4.43;2.75;;;;;;;15.56;80.28;100453.16;3620668;39;20053;-66
2023/10/22 11:25:43;;;;;;;5.35;3.22;;;;;;;15.38;80.42;100433.97;3621360;39;20047;-66
2023/10/22 11:28:10;;;;;;;3.38;2.90;;;;;;;15.55;81.35;100455.00;3614958;39;20055;-66
2023/10/22 11:30:41;;;;;;;2.92;2.67;;;;;;;15.56;80.31;100459.41;3605612;39;20092;-66
2023/10/22 11:33:28;;;;;;;6.38;3.08;;;;;;;15.49;79.91;100469.09;3616342;39;20091;-66